createdAt,value
2023-03-04T00:00:49.350Z,2.13
2023-03-04T00:03:23.172Z,2.16
2023-03-04T00:05:51.108Z,2.16
2023-03-04T00:08:18.926Z,2.14
2023-03-04T00:10:47.066Z,2.13
2023-03-04T00:13:15.196Z,2.11
2023-03-04T00:15:43.025Z,2.15
2023-03-04T00:18:10.907Z,2.18
2023-03-04T00:20:38.802Z,2.23
2023-03-04T00:23:06.767Z,2.25
2023-03-04T00:25:34.706Z,2.17
2023-03-04T00:28:02.500Z,2.18
2023-03-04T00:30:31.754Z,2.18
2023-03-04T00:32:59.881Z,2.24
2023-03-04T00:35:27.867Z,2.18
2023-03-04T00:37:55.894Z,2.18
2023-03-04T00:40:23.971Z,2.23
2023-03-04T00:42:51.920Z,2.20
2023-03-04T00:45:19.864Z,2.24
2023-03-04T00:47:47.902Z,2.27
2023-03-04T00:50:15.956Z,2.29
2023-03-04T00:52:43.968Z,2.21
2023-03-04T00:55:12.030Z,2.21
2023-03-04T00:57:40.371Z,2.27
2023-03-04T01:00:09.166Z,2.25
2023-03-04T01:02:37.174Z,2.23
2023-03-04T01:05:06.446Z,2.18
2023-03-04T01:07:34.303Z,2.33
2023-03-04T01:10:02.362Z,2.40
2023-03-04T01:12:30.340Z,2.25
2023-03-04T01:15:00.434Z,2.27
2023-03-04T01:17:28.317Z,2.29
2023-03-04T01:19:56.377Z,2.28
2023-03-04T01:22:24.277Z,2.27
2023-03-04T01:24:52.286Z,2.34
2023-03-04T01:27:20.179Z,2.33
2023-03-04T01:29:49.067Z,2.33
2023-03-04T01:32:17.023Z,2.34
2023-03-04T01:34:45.162Z,2.32
2023-03-04T01:37:15.951Z,2.29
2023-03-04T01:39:43.875Z,2.37
2023-03-04T01:42:21.401Z,2.39
2023-03-04T01:44:51.277Z,2.37
2023-03-04T01:47:22.443Z,2.39
2023-03-04T01:49:54.749Z,2.41
2023-03-04T01:52:23.686Z,2.41
2023-03-04T01:54:51.893Z,2.41
2023-03-04T01:57:23.763Z,2.38
2023-03-04T02:00:19.679Z,2.39
2023-03-04T02:02:52.427Z,2.35
2023-03-04T02:05:22.346Z,2.42
2023-03-04T02:07:53.331Z,2.41
2023-03-04T02:10:21.479Z,2.36
2023-03-04T02:12:50.104Z,2.38
2023-03-04T02:15:18.781Z,2.39
2023-03-04T02:17:46.775Z,2.30
2023-03-04T02:20:36.674Z,2.34
2023-03-04T02:23:15.201Z,2.34
2023-03-04T02:25:50.637Z,2.35
2023-03-04T02:28:19.136Z,2.32
2023-03-04T02:30:47.188Z,2.37
2023-03-04T02:33:19.012Z,2.29
2023-03-04T02:35:47.536Z,2.30
2023-03-04T02:38:16.073Z,2.29
2023-03-04T02:40:49.168Z,2.31
2023-03-04T02:43:17.300Z,2.31
2023-03-04T02:45:48.492Z,2.33
2023-03-04T02:48:20.341Z,2.25
2023-03-04T02:50:52.494Z,2.26
2023-03-04T02:53:21.861Z,2.27
2023-03-04T02:55:50.339Z,2.27
2023-03-04T02:58:19.153Z,2.26
2023-03-04T03:00:48.008Z,2.35
2023-03-04T03:03:16.195Z,2.32
2023-03-04T03:05:44.634Z,2.29
2023-03-04T03:08:12.766Z,2.32
2023-03-04T03:10:41.459Z,2.28
2023-03-04T03:13:09.497Z,2.41
2023-03-04T03:15:42.291Z,2.36
2023-03-04T03:18:11.516Z,2.31
2023-03-04T03:20:39.356Z,2.38
2023-03-04T03:23:07.410Z,2.30
2023-03-04T03:25:35.409Z,2.34
2023-03-04T03:28:04.258Z,2.32
2023-03-04T03:30:32.455Z,2.33
2023-03-04T03:33:00.425Z,2.38
2023-03-04T03:35:28.396Z,2.34
2023-03-04T03:37:56.488Z,2.35
2023-03-04T03:40:24.482Z,2.32
2023-03-04T03:42:52.250Z,2.39
2023-03-04T03:45:20.350Z,2.35
2023-03-04T03:47:48.240Z,2.38
2023-03-04T03:50:16.579Z,2.41
2023-03-04T03:52:44.475Z,2.36
2023-03-04T03:55:12.485Z,2.41
2023-03-04T03:57:40.326Z,2.44
2023-03-04T04:00:09.886Z,2.40
2023-03-04T04:02:41.027Z,2.30
2023-03-04T04:05:10.095Z,2.35
2023-03-04T04:07:38.640Z,2.40
2023-03-04T04:10:06.766Z,2.46
2023-03-04T04:12:34.793Z,2.48
2023-03-04T04:15:02.586Z,2.44
2023-03-04T04:17:30.601Z,2.41
2023-03-04T04:19:58.506Z,2.47
2023-03-04T04:22:26.502Z,2.50
2023-03-04T04:24:54.417Z,2.51
2023-03-04T04:27:22.781Z,2.43
2023-03-04T04:29:50.947Z,2.46
2023-03-04T04:32:19.026Z,2.43
2023-03-04T04:34:46.987Z,2.42
2023-03-04T04:37:15.029Z,2.47
2023-03-04T04:39:42.905Z,2.44
2023-03-04T04:42:11.908Z,2.47
2023-03-04T04:44:39.896Z,2.44
2023-03-04T04:47:07.958Z,2.50
2023-03-04T04:49:35.929Z,2.51
2023-03-04T04:52:04.114Z,2.53
2023-03-04T04:54:32.260Z,2.43
2023-03-04T04:57:00.171Z,2.45
2023-03-04T04:59:27.985Z,2.56
2023-03-04T05:01:55.881Z,2.53
2023-03-04T05:04:23.803Z,2.50
2023-03-04T05:06:51.686Z,2.55
2023-03-04T05:09:21.083Z,2.56
2023-03-04T05:11:49.389Z,2.56
2023-03-04T05:14:17.295Z,2.54
2023-03-04T05:16:45.224Z,2.42
2023-03-04T05:19:13.275Z,2.38
2023-03-04T05:21:41.311Z,2.41
2023-03-04T05:24:09.245Z,2.42
2023-03-04T05:26:37.154Z,2.46
2023-03-04T05:29:05.104Z,2.49
2023-03-04T05:31:32.942Z,2.51
2023-03-04T05:34:00.963Z,2.47
2023-03-04T05:36:28.987Z,2.46
2023-03-04T05:38:57.208Z,2.48
2023-03-04T05:41:25.885Z,2.53
2023-03-04T05:43:53.934Z,2.60
2023-03-04T05:46:25.906Z,2.57
2023-03-04T05:48:54.768Z,2.58
2023-03-04T05:51:23.297Z,2.63
2023-03-04T05:54:05.482Z,2.72
2023-03-04T05:56:33.767Z,2.63
2023-03-04T05:59:01.899Z,2.67
2023-03-04T06:01:31.510Z,2.71
2023-03-04T06:03:59.660Z,2.73
2023-03-04T06:06:27.523Z,2.73
2023-03-04T06:08:55.410Z,2.73
2023-03-04T06:11:23.462Z,2.79
2023-03-04T06:13:51.253Z,2.85
2023-03-04T06:16:19.216Z,2.95
2023-03-04T06:18:47.342Z,2.94
2023-03-04T06:21:15.252Z,2.95
2023-03-04T06:23:44.456Z,2.90
2023-03-04T06:26:15.656Z,2.86
2023-03-04T06:28:45.068Z,2.87
2023-03-04T06:31:13.278Z,2.83
2023-03-04T06:33:41.236Z,2.80
2023-03-04T06:36:09.208Z,2.80
2023-03-04T06:38:37.138Z,2.78
2023-03-04T06:41:10.590Z,2.82
2023-03-04T06:43:39.084Z,2.88
2023-03-04T06:46:08.301Z,2.89
2023-03-04T06:48:36.757Z,2.91
2023-03-04T06:51:06.888Z,2.94
2023-03-04T06:53:35.315Z,2.99
2023-03-04T06:56:03.945Z,3.05
2023-03-04T06:58:32.234Z,3.07
2023-03-04T07:01:12.227Z,3.05
2023-03-04T07:03:40.539Z,3.06
2023-03-04T07:06:14.170Z,3.05
2023-03-04T07:08:42.903Z,3.11
2023-03-04T07:11:11.118Z,3.20
2023-03-04T07:13:39.571Z,3.21
2023-03-04T07:16:09.948Z,3.20
2023-03-04T07:18:38.978Z,3.22
2023-03-04T07:21:08.148Z,3.24
2023-03-04T07:23:36.717Z,3.30
2023-03-04T07:26:05.382Z,3.30
2023-03-04T07:28:33.928Z,3.38
2023-03-04T07:31:10.054Z,3.39
2023-03-04T07:33:38.112Z,3.36
2023-03-04T07:36:06.263Z,3.42
2023-03-04T07:38:34.414Z,3.45
2023-03-04T07:41:03.248Z,3.46
2023-03-04T07:43:31.062Z,3.52
2023-03-04T07:46:01.822Z,3.55
2023-03-04T07:48:30.117Z,3.59
2023-03-04T07:51:05.065Z,3.61
2023-03-04T07:53:34.010Z,3.61
2023-03-04T07:56:02.870Z,3.65
2023-03-04T07:58:30.915Z,3.67
2023-03-04T08:00:59.251Z,3.65
2023-03-04T08:03:29.692Z,3.69
2023-03-04T08:05:57.780Z,3.81
2023-03-04T08:08:25.808Z,3.82
2023-03-04T08:10:53.798Z,3.74
2023-03-04T08:13:21.689Z,3.79
2023-03-04T08:15:49.857Z,3.86
2023-03-04T08:18:17.771Z,3.99
2023-03-04T08:20:45.925Z,3.94
2023-03-04T08:23:13.879Z,4.04
2023-03-04T08:25:43.043Z,4.14
2023-03-04T08:28:13.387Z,4.20
2023-03-04T08:30:41.928Z,4.17
2023-03-04T08:33:10.515Z,4.16
2023-03-04T08:35:40.044Z,4.18
2023-03-04T08:38:08.072Z,4.17
2023-03-04T08:40:35.919Z,4.02
2023-03-04T08:43:03.727Z,4.19
2023-03-04T08:45:31.789Z,4.28
2023-03-04T08:47:59.694Z,4.32
2023-03-04T08:50:27.666Z,4.33
2023-03-04T08:52:56.081Z,4.35
2023-03-04T08:55:23.997Z,4.35
2023-03-04T08:57:51.854Z,4.31
2023-03-04T09:00:21.312Z,4.37
2023-03-04T09:02:49.557Z,4.44
2023-03-04T09:05:17.384Z,4.37
2023-03-04T09:07:45.408Z,4.42
2023-03-04T09:10:13.895Z,4.52
2023-03-04T09:12:41.868Z,4.44
2023-03-04T09:15:11.872Z,4.44
2023-03-04T09:17:40.911Z,4.68
2023-03-04T09:20:10.611Z,4.78
2023-03-04T09:22:39.668Z,4.93
2023-03-04T09:25:12.060Z,5.00
2023-03-04T09:27:41.519Z,5.04
2023-03-04T09:30:10.410Z,4.98
2023-03-04T09:32:38.728Z,4.95
2023-03-04T09:35:07.225Z,4.88
2023-03-04T09:37:35.082Z,4.78
2023-03-04T09:40:04.281Z,4.80
2023-03-04T09:42:47.659Z,4.94
2023-03-04T09:45:23.591Z,5.01
2023-03-04T09:47:53.704Z,5.17
2023-03-04T09:50:22.270Z,5.31
2023-03-04T09:53:18.782Z,5.21
2023-03-04T09:55:51.459Z,5.18
2023-03-04T09:58:44.799Z,4.97
2023-03-04T10:01:22.517Z,4.97
2023-03-04T10:03:59.792Z,5.16
2023-03-04T10:06:28.760Z,5.18
2023-03-04T10:09:04.414Z,5.29
2023-03-04T10:11:48.725Z,5.34
2023-03-04T10:14:22.466Z,5.46
2023-03-04T10:17:12.761Z,5.46
2023-03-04T10:19:58.086Z,5.44
2023-03-04T10:22:36.877Z,5.40
2023-03-04T10:25:19.342Z,5.65
2023-03-04T10:27:55.524Z,5.81
2023-03-04T10:30:26.127Z,5.96
2023-03-04T10:32:55.863Z,5.92
2023-03-04T10:35:32.132Z,5.82
2023-03-04T10:38:03.482Z,5.83
2023-03-04T10:40:38.874Z,5.86
2023-03-04T10:43:13.804Z,5.87
2023-03-04T10:45:42.249Z,5.92
2023-03-04T10:48:29.395Z,5.93
2023-03-04T10:51:22.072Z,6.02
2023-03-04T10:54:00.113Z,6.12
2023-03-04T10:56:32.619Z,6.35
2023-03-04T10:59:36.133Z,6.41
2023-03-04T11:02:30.847Z,6.45
2023-03-04T11:05:18.969Z,6.51
2023-03-04T11:07:57.299Z,6.44
2023-03-04T11:10:39.482Z,6.52
2023-03-04T11:13:13.094Z,6.65
2023-03-04T11:15:52.185Z,6.77
2023-03-04T11:18:26.590Z,6.78
2023-03-04T11:20:55.653Z,6.62
2023-03-04T11:23:33.914Z,6.56
2023-03-04T11:26:11.549Z,6.49
2023-03-04T11:28:46.820Z,6.54
2023-03-04T11:31:20.802Z,6.59
2023-03-04T11:33:49.011Z,6.57
2023-03-04T11:36:33.259Z,6.83
2023-03-04T11:39:08.733Z,6.86
2023-03-04T11:41:48.057Z,6.79
2023-03-04T11:44:16.160Z,6.67
2023-03-04T11:46:53.254Z,6.54
2023-03-04T11:49:33.158Z,6.48
2023-03-04T11:52:18.890Z,6.30
2023-03-04T11:54:49.530Z,6.26
2023-03-04T11:57:23.174Z,6.30
2023-03-04T12:00:17.317Z,6.46
2023-03-04T12:03:13.158Z,6.44
2023-03-04T12:05:41.271Z,6.55
2023-03-04T12:08:32.519Z,6.70
2023-03-04T12:11:20.449Z,6.84
2023-03-04T12:14:10.458Z,6.91
2023-03-04T12:17:20.262Z,6.87
2023-03-04T12:19:56.603Z,6.75
2023-03-04T12:22:45.633Z,6.83
2023-03-04T12:25:31.686Z,6.98
2023-03-04T12:28:11.590Z,7.18
2023-03-04T12:30:57.892Z,7.26
2023-03-04T12:34:03.253Z,7.14
2023-03-04T12:36:49.740Z,6.97
2023-03-04T12:39:36.751Z,6.86
2023-03-04T12:42:29.813Z,6.93
2023-03-04T12:45:20.514Z,6.99
2023-03-04T12:48:14.363Z,6.93
2023-03-04T12:51:17.450Z,7.17
2023-03-04T12:54:17.713Z,7.16
2023-03-04T12:56:52.457Z,7.08
2023-03-04T12:59:22.252Z,7.02
2023-03-04T13:02:04.907Z,6.82
2023-03-04T13:04:59.847Z,6.81
2023-03-04T13:07:43.936Z,6.70
2023-03-04T13:10:14.785Z,6.65
2023-03-04T13:13:29.268Z,6.59
2023-03-04T13:16:06.739Z,6.54
2023-03-04T13:18:36.949Z,6.47
2023-03-04T13:21:12.425Z,6.38
2023-03-04T13:23:40.978Z,6.38
2023-03-04T13:26:31.809Z,6.29
2023-03-04T13:29:18.053Z,6.35
2023-03-04T13:32:11.234Z,6.26
2023-03-04T13:34:56.144Z,6.22
2023-03-04T13:37:33.325Z,6.04
2023-03-04T13:40:34.129Z,5.88
2023-03-04T13:43:41.099Z,5.69
2023-03-04T13:46:18.666Z,5.73
2023-03-04T13:49:02.487Z,5.62
2023-03-04T13:51:44.210Z,5.39
2023-03-04T13:54:31.292Z,5.22
2023-03-04T13:57:01.896Z,5.06
2023-03-04T13:59:38.788Z,5.01
2023-03-04T14:02:20.199Z,4.95
2023-03-04T14:04:54.396Z,5.01
2023-03-04T14:07:33.438Z,4.92
2023-03-04T14:10:07.579Z,4.96
2023-03-04T14:12:40.176Z,5.07
2023-03-04T14:15:14.137Z,5.12
2023-03-04T14:17:48.297Z,5.23
2023-03-04T14:20:38.438Z,5.20
2023-03-04T14:23:31.466Z,5.24
2023-03-04T14:26:17.897Z,5.27
2023-03-04T14:28:49.242Z,5.36
2023-03-04T14:31:23.940Z,5.52
2023-03-04T14:33:59.944Z,5.57
2023-03-04T14:36:34.317Z,5.73
2023-03-04T14:39:05.988Z,5.80
2023-03-04T14:41:38.085Z,5.86
2023-03-04T14:44:24.639Z,6.00
2023-03-04T14:47:07.625Z,6.13
2023-03-04T14:49:37.742Z,6.12
2023-03-04T14:52:06.912Z,5.89
2023-03-04T14:54:40.498Z,5.89
2023-03-04T14:57:26.089Z,5.71
2023-03-04T14:59:54.550Z,5.60
2023-03-04T15:02:39.523Z,5.39
2023-03-04T15:05:25.913Z,5.39
2023-03-04T15:08:07.022Z,5.36
2023-03-04T15:10:37.926Z,5.41
2023-03-04T15:13:08.638Z,5.43
2023-03-04T15:15:45.321Z,5.45
2023-03-04T15:18:30.254Z,5.32
2023-03-04T15:21:01.848Z,5.27
2023-03-04T15:23:32.082Z,5.12
2023-03-04T15:26:03.495Z,5.00
2023-03-04T15:28:36.981Z,5.02
2023-03-04T15:31:05.925Z,4.98
2023-03-04T15:33:34.424Z,4.97
2023-03-04T15:36:03.267Z,5.02
2023-03-04T15:38:31.445Z,4.90
2023-03-04T15:40:59.700Z,4.82
2023-03-04T15:43:27.919Z,4.72
2023-03-04T15:45:55.874Z,4.75
2023-03-04T15:48:23.823Z,4.65
2023-03-04T15:50:59.417Z,4.67
2023-03-04T15:53:49.674Z,4.66
2023-03-04T15:56:20.579Z,4.66
2023-03-04T15:58:54.316Z,4.59
2023-03-04T16:01:23.754Z,4.49
2023-03-04T16:03:53.801Z,4.49
2023-03-04T16:06:24.914Z,4.44
2023-03-04T16:08:52.969Z,4.41
2023-03-04T16:11:24.214Z,4.37
2023-03-04T16:13:52.368Z,4.30
2023-03-04T16:16:21.061Z,4.30
2023-03-04T16:18:49.310Z,4.19
2023-03-04T16:21:20.372Z,4.12
2023-03-04T16:23:50.129Z,4.04
2023-03-04T16:26:20.823Z,4.02
2023-03-04T16:28:49.507Z,3.94
2023-03-04T16:31:17.953Z,3.84
2023-03-04T16:33:46.042Z,3.74
2023-03-04T16:36:27.046Z,3.73
2023-03-04T16:38:57.810Z,3.71
2023-03-04T16:41:30.575Z,3.67
2023-03-04T16:44:00.708Z,3.60
2023-03-04T16:46:30.236Z,3.55
2023-03-04T16:48:58.551Z,3.46
2023-03-04T16:51:26.596Z,3.39
2023-03-04T16:54:00.357Z,3.31
2023-03-04T16:56:29.060Z,3.29
2023-03-04T16:58:57.066Z,3.20
2023-03-04T17:01:34.129Z,3.17
2023-03-04T17:04:02.080Z,3.15
2023-03-04T17:06:30.089Z,3.07
2023-03-04T17:08:58.136Z,3.02
2023-03-04T17:11:26.139Z,2.92
2023-03-04T17:13:53.971Z,2.81
2023-03-04T17:16:21.977Z,2.82
2023-03-04T17:18:50.636Z,2.77
2023-03-04T17:21:24.634Z,2.71
2023-03-04T17:23:53.841Z,2.65
2023-03-04T17:26:22.750Z,2.58
2023-03-04T17:28:51.729Z,2.56
2023-03-04T17:31:20.783Z,2.54
2023-03-04T17:33:49.306Z,2.47
2023-03-04T17:36:18.972Z,2.41
2023-03-04T17:38:47.325Z,2.30
2023-03-04T17:41:18.340Z,2.17
2023-03-04T17:43:50.310Z,2.18
2023-03-04T17:46:20.866Z,2.09
2023-03-04T17:48:49.175Z,2.06
2023-03-04T17:51:17.117Z,2.03
2023-03-04T17:53:44.889Z,2.02
2023-03-04T17:56:13.336Z,1.97
2023-03-04T17:58:42.117Z,1.91
2023-03-04T18:01:20.817Z,1.84
2023-03-04T18:03:49.388Z,1.78
2023-03-04T18:06:18.345Z,1.76
2023-03-04T18:08:46.413Z,1.68
2023-03-04T18:11:14.802Z,1.61
2023-03-04T18:13:44.205Z,1.59
2023-03-04T18:16:15.327Z,1.59
2023-03-04T18:18:44.643Z,1.60
2023-03-04T18:21:13.712Z,1.47
2023-03-04T18:23:41.592Z,1.41
2023-03-04T18:26:09.811Z,1.40
2023-03-04T18:28:37.787Z,1.37
2023-03-04T18:31:06.007Z,1.40
2023-03-04T18:33:35.237Z,1.35
2023-03-04T18:36:06.572Z,1.31
2023-03-04T18:38:34.527Z,1.26
2023-03-04T18:41:05.282Z,1.25
2023-03-04T18:43:34.330Z,1.24
2023-03-04T18:46:09.231Z,1.22
2023-03-04T18:48:46.826Z,1.23
2023-03-04T18:51:14.790Z,1.19
2023-03-04T18:53:42.859Z,1.13
2023-03-04T18:56:16.962Z,1.14
2023-03-04T18:58:49.369Z,1.07
2023-03-04T19:01:20.694Z,0.97
2023-03-04T19:03:49.008Z,0.89
2023-03-04T19:06:17.680Z,0.84
2023-03-04T19:08:45.593Z,0.79
2023-03-04T19:11:13.509Z,0.72
2023-03-04T19:13:41.839Z,0.67
2023-03-04T19:16:09.935Z,0.65
2023-03-04T19:18:37.962Z,0.61
2023-03-04T19:21:06.144Z,0.58
2023-03-04T19:23:34.046Z,0.53
2023-03-04T19:26:02.419Z,0.49
2023-03-04T19:28:30.451Z,0.44
2023-03-04T19:30:59.378Z,0.41
2023-03-04T19:33:27.254Z,0.35
2023-03-04T19:35:55.242Z,0.29
2023-03-04T19:38:23.266Z,0.19
2023-03-04T19:40:51.151Z,0.10
2023-03-04T19:43:19.098Z,-0.03
2023-03-04T19:45:57.640Z,-0.20
2023-03-04T19:48:25.573Z,-0.45
2023-03-04T19:50:53.637Z,-0.59
2023-03-04T19:53:22.235Z,-0.74
2023-03-04T19:55:50.211Z,-0.86
2023-03-04T19:58:18.906Z,-0.99
2023-03-04T20:00:47.136Z,-1.05
2023-03-04T20:03:15.153Z,-1.09
2023-03-04T20:05:43.036Z,-1.08
2023-03-04T20:08:10.999Z,-1.09
2023-03-04T20:10:39.182Z,-1.08
2023-03-04T20:13:09.201Z,-1.12
2023-03-04T20:15:37.724Z,-1.17
2023-03-04T20:18:05.720Z,-1.24
2023-03-04T20:20:33.808Z,-1.32
2023-03-04T20:23:01.818Z,-1.34
2023-03-04T20:25:32.022Z,-1.39
2023-03-04T20:27:59.929Z,-1.35
2023-03-04T20:30:28.303Z,-1.36
2023-03-04T20:32:56.379Z,-1.33
2023-03-04T20:35:24.322Z,-1.32
2023-03-04T20:37:52.348Z,-1.36
2023-03-04T20:40:20.528Z,-1.42
2023-03-04T20:42:48.419Z,-1.49
2023-03-04T20:45:16.551Z,-1.57
2023-03-04T20:47:44.476Z,-1.64
2023-03-04T20:50:12.615Z,-1.70
2023-03-04T20:52:40.550Z,-1.75
2023-03-04T20:55:09.039Z,-1.82
2023-03-04T20:57:36.907Z,-1.89
2023-03-04T21:00:05.614Z,-1.97
2023-03-04T21:02:33.600Z,-2.06
2023-03-04T21:05:01.754Z,-2.11
2023-03-04T21:07:30.886Z,-2.16
2023-03-04T21:09:58.958Z,-2.16
2023-03-04T21:12:27.080Z,-2.24
2023-03-04T21:14:54.942Z,-2.26
2023-03-04T21:17:24.647Z,-2.22
2023-03-04T21:19:52.563Z,-2.20
2023-03-04T21:22:21.142Z,-2.24
2023-03-04T21:24:49.618Z,-2.26
2023-03-04T21:27:18.039Z,-2.30
2023-03-04T21:29:46.140Z,-2.32
2023-03-04T21:32:24.228Z,-2.37
2023-03-04T21:34:54.801Z,-2.37
2023-03-04T21:37:24.992Z,-2.38
2023-03-04T21:39:53.810Z,-2.37
2023-03-04T21:42:21.793Z,-2.39
2023-03-04T21:44:51.421Z,-2.41
2023-03-04T21:47:21.430Z,-2.37
2023-03-04T21:49:49.669Z,-2.37
2023-03-04T21:52:20.188Z,-2.41
2023-03-04T21:54:48.275Z,-2.46
2023-03-04T21:57:16.828Z,-2.55
2023-03-04T21:59:45.328Z,-2.61
2023-03-04T22:02:19.139Z,-2.66
2023-03-04T22:04:47.595Z,-2.69
2023-03-04T22:07:15.597Z,-2.70
2023-03-04T22:09:43.414Z,-2.72
2023-03-04T22:12:11.433Z,-2.72
2023-03-04T22:14:39.321Z,-2.71
2023-03-04T22:17:07.576Z,-2.71
2023-03-04T22:19:35.718Z,-2.69
2023-03-04T22:22:03.698Z,-2.66
2023-03-04T22:24:31.678Z,-2.64
2023-03-04T22:27:00.054Z,-2.62
2023-03-04T22:29:27.963Z,-2.60
2023-03-04T22:31:55.840Z,-2.61
2023-03-04T22:34:24.218Z,-2.63
2023-03-04T22:36:52.009Z,-2.63
2023-03-04T22:39:19.989Z,-2.63
2023-03-04T22:41:48.185Z,-2.64
2023-03-04T22:44:17.793Z,-2.59
2023-03-04T22:46:45.809Z,-2.55
2023-03-04T22:49:14.695Z,-2.54
2023-03-04T22:51:44.378Z,-2.51
2023-03-04T22:54:15.025Z,-2.49
2023-03-04T22:56:43.586Z,-2.46
2023-03-04T22:59:11.904Z,-2.47
2023-03-04T23:01:40.100Z,-2.42
2023-03-04T23:04:08.174Z,-2.38
2023-03-04T23:06:36.423Z,-2.38
2023-03-04T23:09:05.084Z,-2.36
2023-03-04T23:11:39.554Z,-2.35
2023-03-04T23:14:08.787Z,-2.35
2023-03-04T23:16:42.617Z,-2.35
2023-03-04T23:19:16.765Z,-2.31
2023-03-04T23:21:44.884Z,-2.22
2023-03-04T23:24:13.914Z,-2.13
2023-03-04T23:26:42.700Z,-2.04
2023-03-04T23:29:13.701Z,-1.93
2023-03-04T23:31:42.700Z,-1.85
2023-03-04T23:34:11.447Z,-1.80
2023-03-04T23:36:39.544Z,-1.74
2023-03-04T23:39:08.672Z,-1.68
2023-03-04T23:41:36.759Z,-1.60
2023-03-04T23:44:04.973Z,-1.52
2023-03-04T23:46:32.810Z,-1.49
2023-03-04T23:49:00.883Z,-1.41
2023-03-04T23:51:29.965Z,-1.36
2023-03-04T23:53:59.396Z,-1.29
2023-03-04T23:56:30.001Z,-1.25
2023-03-04T23:58:59.197Z,-1.17
